Time;durP1;ratioP1;P1;durP2;ratioP2;P2;SDS_P1;SDS_P2;PMS_P1;PMS_P2;Temp;Humidity;BMP_temperature;BMP_pressure;BME280_temperature;BME280_humidity;BME280_pressure;Samples;Min_cycle;Max_cycle;Signal;HPM_P1;HPM_P2
2023/08/27 00:03:32;;;;;;;1.05;0.88;;;21.70;69.60;;;;;;10415771;28;20040;-54
2023/08/27 00:08:32;;;;;;;1.83;1.45;;;21.70;69.60;;;;;;10414848;28;20029;-55
2023/08/27 00:13:33;;;;;;;1.63;1.17;;;21.70;69.60;;;;;;10415565;28;20049;-55
2023/08/27 00:18:34;;;;;;;3.53;1.40;;;21.70;69.60;;;;;;10415497;28;20100;-55
2023/08/27 00:23:39;;;;;;;2.80;1.20;;;21.70;69.60;;;;;;10415777;28;20103;-55
2023/08/27 00:28:40;;;;;;;2.83;1.40;;;21.70;69.60;;;;;;10443774;28;20033;-55
2023/08/27 00:33:41;;;;;;;1.77;1.20;;;21.70;69.50;;;;;;10415543;28;20029;-55
2023/08/27 00:38:42;;;;;;;1.35;1.10;;;21.70;69.30;;;;;;10414406;28;20476;-56
2023/08/27 00:43:43;;;;;;;2.30;1.35;;;21.70;69.20;;;;;;10414554;28;20037;-55
2023/08/27 00:48:44;;;;;;;1.55;1.25;;;21.70;69.10;;;;;;10414460;28;20033;-56
2023/08/27 00:53:45;;;;;;;1.40;0.95;;;21.70;69.10;;;;;;10414112;28;20026;-56
2023/08/27 00:58:45;;;;;;;2.35;1.45;;;21.70;69.10;;;;;;10413700;28;20512;-55
2023/08/27 01:03:46;;;;;;;1.45;1.10;;;21.70;69.00;;;;;;10417912;28;20060;-56
2023/08/27 01:09:32;;;;;;;1.75;1.05;;;21.70;69.10;;;;;;10418339;28;20043;-56
2023/08/27 01:14:34;;;;;;;3.35;1.50;;;21.70;69.10;;;;;;10413220;28;20077;-55
2023/08/27 01:19:36;;;;;;;1.50;1.15;;;21.70;69.10;;;;;;10413468;28;20029;-54
2023/08/27 01:24:37;;;;;;;2.47;1.10;;;21.70;69.20;;;;;;10414853;28;20041;-54
2023/08/27 01:30:02;;;;;;;2.25;1.58;;;21.60;69.10;;;;;;10440522;28;20037;-55
2023/08/27 01:35:04;;;;;;;2.20;1.40;;;21.60;69.20;;;;;;10412240;28;20111;-55
2023/08/27 01:40:06;;;;;;;1.75;1.10;;;21.60;69.00;;;;;;10421391;28;20033;-54
2023/08/27 01:45:10;;;;;;;1.63;1.20;;;21.60;68.90;;;;;;10424029;28;20033;-55
2023/08/27 01:50:11;;;;;;;3.35;1.30;;;21.60;69.00;;;;;;10411501;28;20025;-55
2023/08/27 01:55:11;;;;;;;1.85;1.25;;;21.60;69.00;;;;;;10412052;28;20037;-55
2023/08/27 02:00:16;;;;;;;1.90;1.20;;;21.60;69.00;;;;;;10411555;28;20500;-55
2023/08/27 02:05:17;;;;;;;1.33;0.95;;;21.60;69.00;;;;;;10423908;28;20036;-55
2023/08/27 02:10:18;;;;;;;1.80;1.50;;;21.60;69.10;;;;;;10410899;28;20353;-55
2023/08/27 02:15:19;;;;;;;2.00;1.38;;;21.60;69.00;;;;;;10410659;28;20055;-55
2023/08/27 02:20:19;;;;;;;2.17;1.13;;;21.60;69.00;;;;;;10410215;28;20027;-55
2023/08/27 02:25:20;;;;;;;2.38;1.15;;;21.60;68.80;;;;;;10418108;28;20028;-55
2023/08/27 02:30:21;;;;;;;2.30;1.20;;;21.60;68.80;;;;;;10432670;28;20037;-55
2023/08/27 02:35:21;;;;;;;1.27;1.10;;;21.60;68.80;;;;;;10410373;28;20495;-55
2023/08/27 02:40:22;;;;;;;2.28;1.58;;;21.50;68.60;;;;;;10409970;28;20671;-55
2023/08/27 02:45:23;;;;;;;2.30;1.27;;;21.50;68.70;;;;;;10409884;28;20029;-55
2023/08/27 02:50:24;;;;;;;1.67;0.90;;;21.50;68.70;;;;;;10409199;28;20033;-56
2023/08/27 02:55:28;;;;;;;1.55;1.35;;;21.50;68.80;;;;;;10409544;28;20044;-56
2023/08/27 03:00:30;;;;;;;3.25;1.27;;;21.50;68.70;;;;;;10409352;28;20071;-55
2023/08/27 03:05:31;;;;;;;1.98;1.33;;;21.50;68.70;;;;;;10409542;28;20026;-55
2023/08/27 03:10:32;;;;;;;2.10;1.20;;;21.50;68.80;;;;;;10408885;28;20087;-56
2023/08/27 03:15:32;;;;;;;1.48;1.15;;;21.50;68.80;;;;;;10408950;28;20053;-56
2023/08/27 03:20:33;;;;;;;1.15;0.90;;;21.50;68.80;;;;;;10408417;28;20026;-55
2023/08/27 03:25:34;;;;;;;1.25;0.95;;;21.50;68.90;;;;;;10417816;28;20036;-55
2023/08/27 03:30:35;;;;;;;1.52;1.33;;;21.50;69.00;;;;;;10431415;28;20099;-55
2023/08/27 03:35:36;;;;;;;1.48;1.02;;;21.50;69.10;;;;;;10432194;28;20025;-55
2023/08/27 03:40:37;;;;;;;1.30;0.85;;;21.50;69.10;;;;;;10416376;28;20542;-54
2023/08/27 03:45:38;;;;;;;2.75;1.50;;;21.50;69.10;;;;;;10416505;28;20033;-55
2023/08/27 03:50:39;;;;;;;2.65;1.13;;;21.50;69.10;;;;;;10419062;28;20029;-55
2023/08/27 03:55:41;;;;;;;1.00;0.90;;;21.40;69.10;;;;;;10416550;28;20037;-55
2023/08/27 04:00:41;;;;;;;1.20;0.90;;;21.40;69.10;;;;;;10416212;28;20048;-55
2023/08/27 04:05:42;;;;;;;1.67;1.05;;;21.40;69.10;;;;;;10416559;28;20040;-54
2023/08/27 04:10:53;;;;;;;1.88;1.00;;;21.40;69.10;;;;;;10415384;28;20116;-56
2023/08/27 04:16:03;;;;;;;1.75;1.27;;;21.40;69.20;;;;;;10415501;28;20084;-55
2023/08/27 04:21:04;;;;;;;1.67;1.17;;;21.40;69.20;;;;;;10414749;28;20024;-54
2023/08/27 04:26:05;;;;;;;2.78;1.55;;;21.40;69.00;;;;;;10428513;28;20036;-56
2023/08/27 04:31:06;;;;;;;2.20;1.10;;;21.40;69.00;;;;;;10429653;28;20025;-54
2023/08/27 04:36:06;;;;;;;2.13;1.27;;;21.40;69.00;;;;;;10413790;28;20369;-56
2023/08/27 04:41:07;;;;;;;2.05;1.05;;;21.40;69.00;;;;;;10413669;28;20033;-53
2023/08/27 04:46:08;;;;;;;1.35;1.10;;;21.40;69.00;;;;;;10414573;28;20028;-56
2023/08/27 04:51:09;;;;;;;1.80;1.30;;;21.40;68.90;;;;;;10411598;28;20034;-56
2023/08/27 04:56:09;;;;;;;1.48;1.17;;;21.40;69.00;;;;;;10423303;28;20032;-54
2023/08/27 05:01:10;;;;;;;2.15;1.27;;;21.40;69.00;;;;;;10435283;28;20031;-55
2023/08/27 05:06:11;;;;;;;1.67;0.88;;;21.40;69.10;;;;;;10451550;28;20438;-55
2023/08/27 05:11:12;;;;;;;1.75;1.08;;;21.30;69.00;;;;;;10420826;28;20041;-56
2023/08/27 05:16:12;;;;;;;2.00;1.33;;;21.40;69.10;;;;;;10433718;28;20049;-56
2023/08/27 05:21:13;;;;;;;1.25;0.88;;;21.40;69.50;;;;;;10442172;28;20061;-55
2023/08/27 05:26:14;;;;;;;3.47;1.27;;;21.40;69.50;;;;;;10426384;28;20033;-55
2023/08/27 05:31:14;;;;;;;8.32;1.83;;;21.50;69.60;;;;;;10420926;28;20040;-58
2023/08/27 05:36:15;;;;;;;5.60;1.63;;;21.70;69.90;;;;;;10412199;28;20030;-54
2023/08/27 05:41:16;;;;;;;4.15;1.45;;;21.70;69.60;;;;;;10412089;28;20021;-55
2023/08/27 05:46:17;;;;;;;5.13;1.50;;;21.70;69.40;;;;;;10411760;28;20030;-53
2023/08/27 05:51:17;;;;;;;14.10;2.45;;;21.80;69.90;;;;;;10411651;28;20026;-54
2023/08/27 05:56:18;;;;;;;22.00;3.95;;;21.80;69.80;;;;;;10409978;28;20073;-54
2023/08/27 06:01:19;;;;;;;28.48;7.07;;;21.80;69.40;;;;;;10411373;28;20064;-54
2023/08/27 06:06:20;;;;;;;30.45;7.13;;;21.70;70.00;;;;;;10426890;28;20052;-55
2023/08/27 06:11:21;;;;;;;34.22;7.35;;;21.70;70.00;;;;;;10411131;28;20033;-55
2023/08/27 06:16:21;;;;;;;21.30;5.03;;;21.70;70.00;;;;;;10410465;28;20473;-54
2023/08/27 06:21:22;;;;;;;23.55;5.75;;;21.60;70.20;;;;;;10410865;28;20029;-55
2023/08/27 06:26:23;;;;;;;16.38;5.50;;;21.60;70.10;;;;;;10412084;28;20120;-55
2023/08/27 06:31:24;;;;;;;20.52;5.55;;;21.60;70.10;;;;;;10438503;28;20039;-53
2023/08/27 06:36:25;;;;;;;23.85;5.45;;;21.60;70.20;;;;;;10438128;28;20051;-54
2023/08/27 06:41:26;;;;;;;20.55;5.75;;;21.60;70.40;;;;;;10432177;28;20084;-54
2023/08/27 06:46:27;;;;;;;14.27;4.57;;;21.60;70.30;;;;;;10420366;28;20033;-55
2023/08/27 06:51:28;;;;;;;20.60;5.75;;;21.70;70.70;;;;;;10425756;28;20041;-50
2023/08/27 06:56:28;;;;;;;16.98;4.18;;;21.80;70.80;;;;;;10422540;28;20029;-54
2023/08/27 07:01:29;;;;;;;18.70;4.97;;;21.80;70.60;;;;;;10411524;28;20037;-56
2023/08/27 07:06:31;;;;;;;21.73;5.03;;;21.90;71.30;;;;;;10418037;28;20028;-55
2023/08/27 07:11:36;;;;;;;20.77;4.45;;;21.80;70.90;;;;;;10437147;28;20037;-55
2023/08/27 07:16:37;;;;;;;20.50;5.47;;;21.70;70.80;;;;;;10414756;28;20129;-55
2023/08/27 07:21:39;;;;;;;31.60;6.97;;;21.70;71.00;;;;;;10432299;28;20140;-54
2023/08/27 07:26:40;;;;;;;30.85;6.18;;;21.60;71.10;;;;;;10419363;28;20030;-54
2023/08/27 07:31:41;;;;;;;24.67;5.18;;;21.70;71.10;;;;;;10442843;28;20040;-55
2023/08/27 07:36:41;;;;;;;18.65;4.38;;;21.70;71.10;;;;;;10449578;28;20357;-53
2023/08/27 07:41:42;;;;;;;27.10;6.63;;;21.70;71.00;;;;;;10449257;28;20035;-54
2023/08/27 07:46:43;;;;;;;20.13;5.07;;;21.60;70.90;;;;;;10448860;28;20029;-55
2023/08/27 07:51:44;;;;;;;15.05;4.05;;;21.60;70.90;;;;;;10449806;28;20108;-54
2023/08/27 07:56:44;;;;;;;18.80;4.35;;;21.70;70.90;;;;;;10448742;28;20029;-54
2023/08/27 08:01:45;;;;;;;15.90;4.15;;;21.60;70.90;;;;;;10449483;28;20017;-54
2023/08/27 08:06:46;;;;;;;13.23;3.55;;;21.60;70.80;;;;;;10448170;28;20033;-54
2023/08/27 08:11:47;;;;;;;14.43;3.67;;;21.60;70.90;;;;;;10448414;28;20033;-55
2023/08/27 08:16:49;;;;;;;10.55;3.00;;;21.60;70.90;;;;;;10449146;28;20361;-54
2023/08/27 08:21:50;;;;;;;10.55;4.93;;;21.60;70.70;;;;;;10456037;28;20082;-54
2023/08/27 08:26:52;;;;;;;17.50;4.97;;;21.60;70.50;;;;;;10422398;28;20079;-54
2023/08/27 08:31:53;;;;;;;10.27;3.38;;;21.60;70.60;;;;;;10418987;28;20113;-52
2023/08/27 08:36:54;;;;;;;12.70;3.67;;;21.60;70.50;;;;;;10413671;28;20033;-53
2023/08/27 08:42:59;;;;;;;11.23;3.55;;;21.60;70.50;;;;;;10414376;28;20033;-53
2023/08/27 08:48:04;;;;;;;8.52;3.40;;;21.60;70.50;;;;;;10349055;28;20469;-54
2023/08/27 08:53:16;;;;;;;5.20;3.00;;;21.70;70.30;;;;;;10358439;28;20079;-53
2023/08/27 08:58:19;;;;;;;7.10;3.13;;;21.70;70.30;;;;;;10347500;28;20045;-55
2023/08/27 09:03:22;;;;;;;7.82;3.25;;;21.70;70.30;;;;;;10350178;28;20045;-55
2023/08/27 09:08:23;;;;;;;10.48;4.45;;;21.70;70.30;;;;;;10365717;28;20476;-53
2023/08/27 09:13:24;;;;;;;7.88;3.80;;;21.70;70.20;;;;;;10365420;28;20077;-55
2023/08/27 09:18:24;;;;;;;7.38;3.75;;;21.70;70.20;;;;;;10339020;28;20375;-54
2023/08/27 09:23:26;;;;;;;7.90;3.08;;;21.70;70.10;;;;;;10438812;28;20025;-54
2023/08/27 09:28:26;;;;;;;6.00;3.30;;;21.70;70.10;;;;;;10416821;28;20365;-53
2023/08/27 09:33:36;;;;;;;8.50;3.58;;;21.70;69.90;;;;;;10411974;28;20038;-54
2023/08/27 09:38:39;;;;;;;7.68;3.00;;;21.70;70.00;;;;;;10411514;28;20033;-54
2023/08/27 09:43:40;;;;;;;5.28;2.83;;;21.70;70.00;;;;;;10411697;28;20025;-55
2023/08/27 09:48:40;;;;;;;6.03;3.13;;;21.70;69.80;;;;;;10410908;28;20056;-52
2023/08/27 09:53:41;;;;;;;7.72;3.45;;;21.70;69.90;;;;;;10411364;28;20498;-54
2023/08/27 09:58:42;;;;;;;6.97;3.17;;;21.70;70.00;;;;;;10410543;28;20036;-54
2023/08/27 10:03:42;;;;;;;6.47;3.10;;;21.70;70.00;;;;;;10410744;28;20037;-51
2023/08/27 10:08:53;;;;;;;4.88;2.83;;;21.70;69.90;;;;;;10410516;28;20479;-55
2023/08/27 10:13:57;;;;;;;4.72;2.42;;;21.70;69.90;;;;;;10409954;28;20400;-54
2023/08/27 10:18:58;;;;;;;5.90;2.83;;;21.70;69.90;;;;;;10417698;28;20030;-55
2023/08/27 10:24:00;;;;;;;4.22;2.35;;;21.70;69.80;;;;;;10409883;28;20029;-54
2023/08/27 10:29:03;;;;;;;4.50;2.42;;;21.60;69.80;;;;;;10438206;28;20057;-55
2023/08/27 10:34:05;;;;;;;6.35;2.50;;;21.60;69.70;;;;;;10409429;28;20136;-54
2023/08/27 10:39:07;;;;;;;4.57;2.50;;;21.60;69.80;;;;;;10423431;28;20025;-54
2023/08/27 10:44:19;;;;;;;4.13;2.60;;;21.60;70.00;;;;;;10409145;28;20029;-54
2023/08/27 10:49:22;;;;;;;4.45;2.83;;;21.60;70.00;;;;;;10413144;28;20072;-51
2023/08/27 10:54:26;;;;;;;4.43;2.78;;;21.60;70.20;;;;;;10408764;28;20436;-55
2023/08/27 10:59:28;;;;;;;3.67;2.65;;;21.60;70.30;;;;;;10408128;28;20056;-55
2023/08/27 11:04:44;;;;;;;4.97;2.35;;;21.50;70.30;;;;;;10408518;28;20037;-54
2023/08/27 11:09:56;;;;;;;3.47;2.47;;;21.50;70.10;;;;;;10407867;28;20037;-53
2023/08/27 11:15:14;;;;;;;3.63;2.40;;;21.50;70.30;;;;;;10434682;28;20124;-54
2023/08/27 11:20:24;;;;;;;3.15;1.85;;;21.50;70.30;;;;;;10448785;28;20104;-54
2023/08/27 11:25:30;;;;;;;4.00;2.60;;;21.50;70.30;;;;;;10427904;28;20183;-54
2023/08/27 11:30:31;;;;;;;3.38;1.90;;;21.50;71.00;;;;;;10412340;28;20068;-55
2023/08/27 11:35:32;;;;;;;5.20;2.10;;;21.50;70.40;;;;;;10407557;28;20117;-54
2023/08/27 11:40:32;;;;;;;4.95;2.33;;;21.40;70.40;;;;;;10407416;28;20041;-54
2023/08/27 11:45:37;;;;;;;4.38;2.25;;;21.40;70.40;;;;;;10407785;28;20029;-54
2023/08/27 11:50:42;;;;;;;3.28;2.15;;;21.40;70.70;;;;;;10436965;28;20382;-54
2023/08/27 11:55:43;;;;;;;2.45;1.83;;;21.40;70.40;;;;;;10456650;28;20040;-55
2023/08/27 12:00:48;;;;;;;2.80;2.30;;;21.40;70.30;;;;;;10456759;28;20032;-53
2023/08/27 12:05:49;;;;;;;3.63;1.90;;;21.40;70.30;;;;;;10456180;28;20045;-54
2023/08/27 12:10:51;;;;;;;4.95;1.80;;;21.40;70.20;;;;;;10455679;28;20468;-54
2023/08/27 12:15:53;;;;;;;3.00;1.88;;;21.50;69.60;;;;;;10454009;28;20136;-54
2023/08/27 12:20:54;;;;;;;3.22;1.92;;;21.50;69.50;;;;;;10454024;28;20029;-54
2023/08/27 12:25:56;;;;;;;3.70;1.75;;;21.50;69.20;;;;;;10430249;28;20033;-54
2023/08/27 12:30:58;;;;;;;3.08;1.52;;;21.50;69.30;;;;;;10419219;28;20040;-54
2023/08/27 12:36:04;;;;;;;2.15;1.45;;;21.60;69.40;;;;;;10413751;28;20033;-54
2023/08/27 12:41:05;;;;;;;2.22;1.75;;;21.60;69.30;;;;;;10416832;28;20024;-54
2023/08/27 12:46:06;;;;;;;3.88;2.28;;;21.60;69.40;;;;;;10424174;28;20039;-55
2023/08/27 12:51:07;;;;;;;3.00;1.73;;;21.60;69.40;;;;;;10413380;28;20030;-54
2023/08/27 12:56:08;;;;;;;2.80;2.30;;;21.60;69.40;;;;;;10413537;28;20088;-55
2023/08/27 13:01:09;;;;;;;2.50;1.52;;;21.50;69.30;;;;;;10421990;28;20396;-54
2023/08/27 13:06:10;;;;;;;2.28;1.40;;;21.50;69.30;;;;;;10412090;28;20037;-53
2023/08/27 13:11:10;;;;;;;2.55;1.42;;;21.50;69.30;;;;;;10412187;28;20033;-54
2023/08/27 13:16:11;;;;;;;1.92;1.48;;;21.50;69.30;;;;;;10412351;28;20048;-52
2023/08/27 13:21:12;;;;;;;2.28;1.75;;;21.60;69.30;;;;;;10412046;28;20048;-54
2023/08/27 13:26:15;;;;;;;2.20;1.23;;;21.60;69.20;;;;;;10425908;28;20051;-54
2023/08/27 13:31:15;;;;;;;3.63;1.38;;;21.60;69.10;;;;;;10426243;28;20079;-54
2023/08/27 13:36:17;;;;;;;1.98;1.38;;;21.70;69.70;;;;;;10412369;28;20469;-54
2023/08/27 13:41:18;;;;;;;2.20;1.35;;;21.70;69.00;;;;;;10411245;28;20037;-55
2023/08/27 13:46:18;;;;;;;2.50;1.45;;;21.70;69.00;;;;;;10418384;28;20508;-54
2023/08/27 13:51:19;;;;;;;2.15;1.30;;;21.70;68.90;;;;;;10410604;28;20040;-53
2023/08/27 13:56:20;;;;;;;2.08;1.38;;;21.70;68.90;;;;;;10410897;28;20563;-52
2023/08/27 14:01:23;;;;;;;1.83;1.33;;;21.70;68.90;;;;;;10410387;28;20029;-54
2023/08/27 14:06:25;;;;;;;2.13;1.40;;;21.70;68.90;;;;;;10410619;28;20030;-54
2023/08/27 14:11:26;;;;;;;4.60;1.40;;;21.70;68.90;;;;;;10409905;28;20029;-54
2023/08/27 14:16:26;;;;;;;2.40;1.15;;;21.60;69.10;;;;;;10423157;28;20054;-54
2023/08/27 14:21:27;;;;;;;1.30;0.90;;;21.60;69.10;;;;;;10409739;28;20022;-53
2023/08/27 14:26:28;;;;;;;1.95;1.10;;;21.50;69.10;;;;;;10426697;28;20033;-54
2023/08/27 14:31:28;;;;;;;1.35;1.20;;;21.60;69.20;;;;;;10421965;28;20037;-55
2023/08/27 14:36:29;;;;;;;3.25;1.58;;;21.50;69.20;;;;;;10407808;28;20041;-54
2023/08/27 14:41:30;;;;;;;1.73;1.35;;;21.50;69.30;;;;;;10408920;28;20410;-53
2023/08/27 14:46:31;;;;;;;1.42;1.10;;;21.50;69.30;;;;;;10409644;28;20029;-54
2023/08/27 14:51:32;;;;;;;1.95;1.23;;;21.50;69.40;;;;;;10408809;28;20025;-55
2023/08/27 14:56:33;;;;;;;2.47;1.38;;;21.50;69.60;;;;;;10408427;28;20026;-54
2023/08/27 15:01:34;;;;;;;1.63;1.10;;;21.50;69.60;;;;;;10408685;28;20057;-55
2023/08/27 15:06:35;;;;;;;2.38;1.20;;;21.50;69.60;;;;;;10409508;28;20479;-53
2023/08/27 15:11:35;;;;;;;1.45;0.98;;;21.50;69.50;;;;;;10407350;28;20095;-54
2023/08/27 15:16:36;;;;;;;1.58;1.05;;;21.60;69.40;;;;;;10408136;28;20053;-55
2023/08/27 15:21:37;;;;;;;1.75;0.98;;;21.50;69.20;;;;;;10407877;28;20033;-54
2023/08/27 15:26:39;;;;;;;3.25;1.85;;;21.50;69.20;;;;;;10425226;28;20047;-54
2023/08/27 15:31:40;;;;;;;2.05;1.33;;;21.50;69.40;;;;;;10419346;28;20026;-53
2023/08/27 15:36:41;;;;;;;1.23;0.90;;;21.50;69.40;;;;;;10407917;28;20057;-53
2023/08/27 15:41:41;;;;;;;2.45;1.10;;;21.40;69.40;;;;;;10409401;28;20376;-53
2023/08/27 15:46:42;;;;;;;3.65;1.13;;;21.50;69.20;;;;;;10412590;28;20041;-53
2023/08/27 15:51:43;;;;;;;7.80;1.75;;;21.50;69.50;;;;;;10443026;28;20024;-55
2023/08/27 15:56:44;;;;;;;5.85;5.28;;;21.50;69.60;;;;;;10435060;28;20103;-55
2023/08/27 16:01:45;;;;;;;22.73;20.42;;;21.70;70.20;;;;;;10409429;28;20083;-54
2023/08/27 16:06:47;;;;;;;17.75;13.57;;;21.90;70.90;;;;;;10418939;28;20029;-54
2023/08/27 16:11:48;;;;;;;15.43;11.30;;;22.00;74.50;;;;;;10420330;28;20068;-55
2023/08/27 16:16:50;;;;;;;18.83;9.05;;;22.10;74.50;;;;;;10407092;28;20123;-55
2023/08/27 16:21:51;;;;;;;13.10;6.93;;;22.10;74.80;;;;;;10407645;28;20026;-55
2023/08/27 16:26:52;;;;;;;20.40;7.88;;;22.20;73.70;;;;;;10427342;28;20468;-54
2023/08/27 16:31:52;;;;;;;14.65;6.18;;;22.20;72.80;;;;;;10418673;28;20040;-52
2023/08/27 16:36:53;;;;;;;10.80;5.30;;;22.20;73.20;;;;;;10407664;28;20033;-55
2023/08/27 16:41:54;;;;;;;16.70;6.35;;;22.20;73.10;;;;;;10424184;28;20052;-55
2023/08/27 16:46:58;;;;;;;15.80;5.30;;;22.10;73.10;;;;;;10415094;28;20030;-52
2023/08/27 16:51:59;;;;;;;14.45;6.40;;;22.10;72.80;;;;;;10413843;28;20068;-54
2023/08/27 16:56:59;;;;;;;14.77;5.97;;;22.00;72.60;;;;;;10413918;28;20030;-53
2023/08/27 17:02:00;;;;;;;10.73;3.78;;;21.80;72.50;;;;;;10414080;28;20488;-54
2023/08/27 17:07:02;;;;;;;11.00;3.85;;;21.80;72.50;;;;;;10413667;28;20128;-54
2023/08/27 17:12:03;;;;;;;11.93;3.80;;;21.80;72.40;;;;;;10431270;28;20036;-54
2023/08/27 17:17:04;;;;;;;12.98;4.45;;;21.80;72.30;;;;;;10426924;28;20116;-53
2023/08/27 17:22:04;;;;;;;9.82;4.10;;;21.90;72.90;;;;;;10427667;28;20022;-53
2023/08/27 17:27:05;;;;;;;6.57;3.88;;;21.80;72.20;;;;;;10427679;28;20033;-52
2023/08/27 17:32:08;;;;;;;8.55;3.25;;;21.70;72.20;;;;;;10431466;28;20026;-54
2023/08/27 17:37:09;;;;;;;7.70;3.17;;;21.70;71.90;;;;;;10438959;28;20488;-52
2023/08/27 17:42:10;;;;;;;10.30;3.47;;;21.70;71.90;;;;;;10425849;28;20361;-53
2023/08/27 17:47:12;;;;;;;6.57;2.85;;;21.60;71.80;;;;;;10418464;28;20033;-53
2023/08/27 17:52:13;;;;;;;8.57;2.90;;;21.60;71.60;;;;;;10416268;28;20034;-54
2023/08/27 17:57:14;;;;;;;6.47;2.53;;;21.60;71.90;;;;;;10437993;28;20033;-53
2023/08/27 18:02:15;;;;;;;13.43;4.18;;;21.60;71.90;;;;;;10442758;28;20095;-54
2023/08/27 18:07:15;;;;;;;8.43;3.05;;;21.60;71.90;;;;;;10452145;28;20112;-55
2023/08/27 18:12:16;;;;;;;6.68;2.83;;;21.60;72.00;;;;;;10450779;28;20028;-55
2023/08/27 18:17:17;;;;;;;10.80;3.67;;;21.60;71.60;;;;;;10421373;28;20075;-53
2023/08/27 18:22:17;;;;;;;6.00;2.75;;;21.60;71.80;;;;;;10409958;28;20029;-52
2023/08/27 18:27:18;;;;;;;7.50;2.95;;;21.60;71.80;;;;;;10438441;28;20033;-53
2023/08/27 18:32:19;;;;;;;8.73;2.70;;;21.50;71.80;;;;;;10428411;28;20037;-52
2023/08/27 18:37:20;;;;;;;6.05;2.67;;;21.60;71.80;;;;;;10421773;28;20025;-55
2023/08/27 18:42:21;;;;;;;5.10;2.13;;;21.60;71.80;;;;;;10421534;28;20712;-54
2023/08/27 18:47:22;;;;;;;4.43;2.40;;;21.50;71.70;;;;;;10414870;28;20491;-54
2023/08/27 18:52:23;;;;;;;5.32;2.22;;;21.50;71.80;;;;;;10410207;28;20021;-52
2023/08/27 18:57:24;;;;;;;5.60;2.20;;;21.50;71.80;;;;;;10416659;28;20026;-54
2023/08/27 19:02:24;;;;;;;7.05;2.15;;;21.50;71.80;;;;;;10422444;28;20104;-55
2023/08/27 19:07:25;;;;;;;6.47;2.03;;;21.50;71.80;;;;;;10432504;28;20029;-53
2023/08/27 19:12:26;;;;;;;5.55;2.33;;;21.50;71.70;;;;;;10449358;28;20071;-54
2023/08/27 19:17:27;;;;;;;5.97;2.83;;;21.50;71.70;;;;;;10413036;28;20524;-54
2023/08/27 19:22:27;;;;;;;6.57;2.70;;;21.50;71.80;;;;;;10408010;28;20036;-52
2023/08/27 19:27:28;;;;;;;3.75;1.63;;;21.50;71.70;;;;;;10408836;28;20060;-54
2023/08/27 19:32:29;;;;;;;4.95;1.75;;;21.50;71.70;;;;;;10416807;28;20048;-55
2023/08/27 19:37:30;;;;;;;7.15;2.47;;;21.50;71.80;;;;;;10408270;28;20030;-54
2023/08/27 19:42:30;;;;;;;5.85;2.00;;;21.50;71.70;;;;;;10439146;28;20447;-51
2023/08/27 19:47:31;;;;;;;4.60;1.92;;;21.50;71.80;;;;;;10448911;28;20120;-53
2023/08/27 19:52:32;;;;;;;3.45;1.73;;;21.50;71.80;;;;;;10435059;28;20055;-53
2023/08/27 19:57:33;;;;;;;5.70;2.00;;;21.40;71.80;;;;;;10448500;28;20032;-54
2023/08/27 20:02:33;;;;;;;4.43;1.90;;;21.40;71.80;;;;;;10449048;28;20028;-54
2023/08/27 20:07:34;;;;;;;6.68;2.67;;;21.50;71.80;;;;;;10448382;28;20120;-52
2023/08/27 20:12:35;;;;;;;2.13;1.45;;;21.50;71.80;;;;;;10440459;28;20055;-52
2023/08/27 20:17:36;;;;;;;5.15;1.98;;;21.40;71.80;;;;;;10424223;28;20399;-52
2023/08/27 20:22:36;;;;;;;3.30;2.15;;;21.50;71.50;;;;;;10434015;28;20048;-53
2023/08/27 20:27:37;;;;;;;4.47;1.90;;;21.50;71.70;;;;;;10420792;28;20029;-54
2023/08/27 20:32:41;;;;;;;3.00;1.70;;;21.40;71.80;;;;;;10425944;28;20443;-52
2023/08/27 20:37:42;;;;;;;5.43;2.15;;;21.40;71.90;;;;;;10414506;28;20116;-54
2023/08/27 20:42:45;;;;;;;4.50;1.52;;;21.40;71.90;;;;;;10414555;28;20025;-53
2023/08/27 20:47:47;;;;;;;2.95;1.35;;;21.30;71.80;;;;;;10413972;28;20040;-54
2023/08/27 20:52:47;;;;;;;3.83;1.63;;;21.30;71.80;;;;;;10414240;28;20033;-53
2023/08/27 20:57:48;;;;;;;2.90;1.48;;;21.30;71.70;;;;;;10413896;28;20037;-52
2023/08/27 21:02:49;;;;;;;5.03;2.30;;;21.30;71.70;;;;;;10413641;28;20330;-53
2023/08/27 21:07:51;;;;;;;3.10;1.38;;;21.20;71.70;;;;;;10413442;28;20476;-53
2023/08/27 21:12:51;;;;;;;2.83;1.60;;;21.30;71.70;;;;;;10428066;28;20404;-55
2023/08/27 21:17:52;;;;;;;2.53;1.67;;;21.30;71.70;;;;;;10413010;28;20032;-54
2023/08/27 21:22:53;;;;;;;2.92;1.30;;;21.20;71.70;;;;;;10412870;28;20041;-54
2023/08/27 21:27:54;;;;;;;2.88;1.50;;;21.20;71.60;;;;;;10442399;28;20033;-50
2023/08/27 21:32:54;;;;;;;3.28;2.13;;;21.20;71.70;;;;;;10412936;28;20091;-53
2023/08/27 21:37:55;;;;;;;3.55;1.60;;;21.20;71.60;;;;;;10412154;28;20080;-54
2023/08/27 21:42:56;;;;;;;3.17;1.67;;;21.20;71.50;;;;;;10412673;28;20021;-52
2023/08/27 21:47:56;;;;;;;2.05;1.55;;;21.20;71.60;;;;;;10411753;28;20052;-53
2023/08/27 21:52:57;;;;;;;3.05;1.48;;;21.20;71.50;;;;;;10425416;28;20022;-54
2023/08/27 21:57:58;;;;;;;2.00;1.50;;;21.20;71.50;;;;;;10411391;28;20037;-53
2023/08/27 22:02:59;;;;;;;4.32;1.85;;;21.20;71.50;;;;;;10411499;28;20098;-53
2023/08/27 22:07:59;;;;;;;3.28;1.73;;;21.20;71.40;;;;;;10410995;28;20041;-54
2023/08/27 22:13:04;;;;;;;2.30;1.48;;;21.10;71.30;;;;;;10410728;28;20054;-52
2023/08/27 22:18:05;;;;;;;2.85;1.98;;;21.10;71.30;;;;;;10410369;28;20033;-53
2023/08/27 22:23:06;;;;;;;3.80;2.03;;;21.10;71.30;;;;;;10410535;28;20030;-53
2023/08/27 22:28:06;;;;;;;6.68;1.63;;;21.10;71.30;;;;;;10439180;28;20432;-51
2023/08/27 22:33:07;;;;;;;2.40;1.50;;;21.10;71.30;;;;;;10415075;28;20037;-53
2023/08/27 22:38:08;;;;;;;1.75;1.38;;;21.00;71.20;;;;;;10408893;28;20033;-53
2023/08/27 22:43:09;;;;;;;2.22;1.48;;;21.00;71.20;;;;;;10410151;28;20032;-53
2023/08/27 22:48:10;;;;;;;3.17;1.55;;;21.00;71.20;;;;;;10409563;28;20029;-53
2023/08/27 22:53:10;;;;;;;2.40;1.58;;;21.10;71.30;;;;;;10409612;28;20053;-54
2023/08/27 22:58:11;;;;;;;3.25;1.65;;;21.10;71.20;;;;;;10409229;28;20033;-54
2023/08/27 23:03:12;;;;;;;2.60;1.42;;;21.10;71.20;;;;;;10409455;28;20033;-54
2023/08/27 23:08:12;;;;;;;3.80;1.50;;;21.00;71.10;;;;;;10408770;28;20040;-54
2023/08/27 23:13:13;;;;;;;2.80;1.48;;;21.00;71.10;;;;;;10408996;28;20436;-54
2023/08/27 23:18:15;;;;;;;2.17;1.58;;;21.00;71.00;;;;;;10436331;28;20112;-54
2023/08/27 23:23:16;;;;;;;2.53;1.40;;;21.00;71.00;;;;;;10446669;28;20025;-54
2023/08/27 23:28:17;;;;;;;2.35;1.30;;;21.00;71.00;;;;;;10413047;28;20504;-54
2023/08/27 23:33:18;;;;;;;2.53;1.33;;;21.00;70.90;;;;;;10408928;28;20109;-54
2023/08/27 23:38:19;;;;;;;2.85;1.88;;;21.00;70.90;;;;;;10408525;28;20557;-53
2023/08/27 23:43:19;;;;;;;1.73;1.52;;;21.00;70.90;;;;;;10417681;28;20021;-53
2023/08/27 23:48:20;;;;;;;2.05;1.27;;;21.00;70.80;;;;;;10412355;28;20030;-53
2023/08/27 23:53:21;;;;;;;1.85;1.58;;;21.00;70.80;;;;;;10416655;28;20026;-53
2023/08/27 23:58:23;;;;;;;1.40;1.30;;;21.00;70.80;;;;;;10416004;28;20039;-53
